Merelbeke, Belgium
Current Conditions -  °F | °C
As of 11:03 AM on Sunday 26 Oct 2014 (Local Time) from EBCV Reporting Station
Broken Clouds Broken Clouds  
Wind Chill: 13°   Ceiling: 4100
Heat Index: 13°   Visibility: 6mi
Dew Point: 11°   Wind: 8mph
Humidity: 88%   Direction: 200°SSW
Pressure: 30.27"   Gusts: NA
Location:  50.99°N, 3.75°E
Report Text: EBCV 260903Z AUTO 20007KT 9999 FEW014/// BKN041/// 13/11 Q1025 BLU
Loading
Personal Weather Stations






























Interactive Weather Map
Tropical Storm Tracking
New forecast layout! Learn more

10-Day Weather Forecast

Advertisements
Track Severe Weather on mobile